sensor_id;sensor_type;location;lat;lon;timestamp;P1;durP1;ratioP1;P2;durP2;ratioP2
3207;SDS011;1616;52.394;9.756;2022-08-27T00:00:29;7.97;;;3.20;;
3207;SDS011;1616;52.394;9.756;2022-08-27T00:02:56;7.93;;;3.47;;
3207;SDS011;1616;52.394;9.756;2022-08-27T00:05:21;5.70;;;3.30;;
3207;SDS011;1616;52.394;9.756;2022-08-27T00:07:47;8.87;;;3.13;;
3207;SDS011;1616;52.394;9.756;2022-08-27T00:10:16;6.97;;;3.33;;
3207;SDS011;1616;52.394;9.756;2022-08-27T00:12:44;5.47;;;3.13;;
3207;SDS011;1616;52.394;9.756;2022-08-27T00:15:10;9.50;;;3.80;;
3207;SDS011;1616;52.394;9.756;2022-08-27T00:17:36;16.73;;;5.43;;
3207;SDS011;1616;52.394;9.756;2022-08-27T00:20:03;10.40;;;3.77;;
3207;SDS011;1616;52.394;9.756;2022-08-27T00:22:30;3.33;;;2.73;;
3207;SDS011;1616;52.394;9.756;2022-08-27T00:24:56;9.40;;;3.53;;
3207;SDS011;1616;52.394;9.756;2022-08-27T00:27:22;8.37;;;3.03;;
3207;SDS011;1616;52.394;9.756;2022-08-27T00:29:48;12.27;;;4.20;;
3207;SDS011;1616;52.394;9.756;2022-08-27T00:32:14;7.77;;;3.73;;
3207;SDS011;1616;52.394;9.756;2022-08-27T00:34:40;5.80;;;3.60;;
3207;SDS011;1616;52.394;9.756;2022-08-27T00:37:07;9.77;;;4.43;;
3207;SDS011;1616;52.394;9.756;2022-08-27T00:39:33;11.10;;;4.20;;
3207;SDS011;1616;52.394;9.756;2022-08-27T00:42:01;10.30;;;3.87;;
3207;SDS011;1616;52.394;9.756;2022-08-27T00:44:28;8.47;;;3.40;;
3207;SDS011;1616;52.394;9.756;2022-08-27T00:46:56;7.43;;;2.90;;
3207;SDS011;1616;52.394;9.756;2022-08-27T00:49:27;12.60;;;4.17;;
3207;SDS011;1616;52.394;9.756;2022-08-27T00:55:02;5.30;;;2.93;;
3207;SDS011;1616;52.394;9.756;2022-08-27T00:57:33;9.93;;;3.23;;
3207;SDS011;1616;52.394;9.756;2022-08-27T01:00:03;4.40;;;2.47;;
3207;SDS011;1616;52.394;9.756;2022-08-27T01:02:32;8.73;;;3.07;;
3207;SDS011;1616;52.394;9.756;2022-08-27T01:05:05;6.87;;;2.60;;
3207;SDS011;1616;52.394;9.756;2022-08-27T01:07:34;7.97;;;3.37;;
3207;SDS011;1616;52.394;9.756;2022-08-27T01:10:04;3.03;;;2.60;;
3207;SDS011;1616;52.394;9.756;2022-08-27T01:12:34;6.60;;;2.43;;
3207;SDS011;1616;52.394;9.756;2022-08-27T01:15:02;5.13;;;3.57;;
3207;SDS011;1616;52.394;9.756;2022-08-27T01:17:31;7.80;;;2.77;;
3207;SDS011;1616;52.394;9.756;2022-08-27T01:19:57;6.00;;;3.17;;
3207;SDS011;1616;52.394;9.756;2022-08-27T01:22:30;8.53;;;3.33;;
3207;SDS011;1616;52.394;9.756;2022-08-27T01:25:05;6.83;;;3.27;;
3207;SDS011;1616;52.394;9.756;2022-08-27T01:27:33;3.03;;;2.73;;
3207;SDS011;1616;52.394;9.756;2022-08-27T01:29:59;8.93;;;3.53;;
3207;SDS011;1616;52.394;9.756;2022-08-27T01:32:27;10.00;;;3.80;;
3207;SDS011;1616;52.394;9.756;2022-08-27T01:34:56;6.70;;;3.90;;
3207;SDS011;1616;52.394;9.756;2022-08-27T01:37:25;13.30;;;4.13;;
3207;SDS011;1616;52.394;9.756;2022-08-27T01:39:52;4.90;;;2.70;;
3207;SDS011;1616;52.394;9.756;2022-08-27T01:44:52;9.20;;;3.73;;
3207;SDS011;1616;52.394;9.756;2022-08-27T01:47:20;5.03;;;3.17;;
3207;SDS011;1616;52.394;9.756;2022-08-27T01:49:48;6.83;;;4.03;;
3207;SDS011;1616;52.394;9.756;2022-08-27T01:52:14;6.00;;;2.70;;
3207;SDS011;1616;52.394;9.756;2022-08-27T01:54:43;11.57;;;4.33;;
3207;SDS011;1616;52.394;9.756;2022-08-27T01:57:09;8.73;;;5.70;;
3207;SDS011;1616;52.394;9.756;2022-08-27T01:59:35;7.60;;;3.77;;
3207;SDS011;1616;52.394;9.756;2022-08-27T02:02:01;8.03;;;4.40;;
3207;SDS011;1616;52.394;9.756;2022-08-27T02:04:28;7.40;;;3.60;;
3207;SDS011;1616;52.394;9.756;2022-08-27T02:06:54;9.80;;;4.83;;
3207;SDS011;1616;52.394;9.756;2022-08-27T02:09:21;11.63;;;4.00;;
3207;SDS011;1616;52.394;9.756;2022-08-27T02:11:47;5.63;;;3.77;;
3207;SDS011;1616;52.394;9.756;2022-08-27T02:14:13;5.10;;;4.60;;
3207;SDS011;1616;52.394;9.756;2022-08-27T02:16:39;11.20;;;4.70;;
3207;SDS011;1616;52.394;9.756;2022-08-27T02:19:05;14.83;;;5.03;;
3207;SDS011;1616;52.394;9.756;2022-08-27T02:21:31;10.10;;;4.33;;
3207;SDS011;1616;52.394;9.756;2022-08-27T02:23:57;11.07;;;3.67;;
3207;SDS011;1616;52.394;9.756;2022-08-27T02:26:23;7.27;;;4.53;;
3207;SDS011;1616;52.394;9.756;2022-08-27T02:28:48;8.47;;;3.97;;
3207;SDS011;1616;52.394;9.756;2022-08-27T02:31:14;6.50;;;4.13;;
3207;SDS011;1616;52.394;9.756;2022-08-27T02:33:42;3.90;;;3.57;;
3207;SDS011;1616;52.394;9.756;2022-08-27T02:36:08;10.50;;;4.63;;
3207;SDS011;1616;52.394;9.756;2022-08-27T02:38:34;9.00;;;4.70;;
3207;SDS011;1616;52.394;9.756;2022-08-27T02:41:00;7.63;;;3.63;;
3207;SDS011;1616;52.394;9.756;2022-08-27T02:43:26;4.40;;;3.60;;
3207;SDS011;1616;52.394;9.756;2022-08-27T02:45:52;9.67;;;4.83;;
3207;SDS011;1616;52.394;9.756;2022-08-27T02:48:18;5.00;;;4.33;;
3207;SDS011;1616;52.394;9.756;2022-08-27T02:50:45;10.00;;;3.67;;
3207;SDS011;1616;52.394;9.756;2022-08-27T02:53:11;6.33;;;3.43;;
3207;SDS011;1616;52.394;9.756;2022-08-27T02:55:37;11.97;;;3.50;;
3207;SDS011;1616;52.394;9.756;2022-08-27T02:58:03;9.70;;;4.43;;
3207;SDS011;1616;52.394;9.756;2022-08-27T03:00:29;13.03;;;4.03;;
3207;SDS011;1616;52.394;9.756;2022-08-27T03:02:55;8.23;;;3.53;;
3207;SDS011;1616;52.394;9.756;2022-08-27T03:05:22;15.37;;;3.87;;
3207;SDS011;1616;52.394;9.756;2022-08-27T03:07:48;12.23;;;4.77;;
3207;SDS011;1616;52.394;9.756;2022-08-27T03:10:14;12.87;;;3.40;;
3207;SDS011;1616;52.394;9.756;2022-08-27T03:12:43;7.43;;;3.90;;
3207;SDS011;1616;52.394;9.756;2022-08-27T03:15:10;6.70;;;3.97;;
3207;SDS011;1616;52.394;9.756;2022-08-27T03:17:38;10.40;;;3.73;;
3207;SDS011;1616;52.394;9.756;2022-08-27T03:20:23;12.83;;;4.20;;
3207;SDS011;1616;52.394;9.756;2022-08-27T03:22:50;7.07;;;3.30;;
3207;SDS011;1616;52.394;9.756;2022-08-27T03:25:16;6.63;;;3.00;;
3207;SDS011;1616;52.394;9.756;2022-08-27T03:27:41;3.60;;;2.80;;
3207;SDS011;1616;52.394;9.756;2022-08-27T03:30:09;6.37;;;3.40;;
3207;SDS011;1616;52.394;9.756;2022-08-27T03:32:38;11.37;;;2.97;;
3207;SDS011;1616;52.394;9.756;2022-08-27T03:35:04;7.20;;;3.60;;
3207;SDS011;1616;52.394;9.756;2022-08-27T03:37:30;6.50;;;3.13;;
3207;SDS011;1616;52.394;9.756;2022-08-27T03:39:55;13.03;;;2.83;;
3207;SDS011;1616;52.394;9.756;2022-08-27T03:42:21;7.63;;;4.10;;
3207;SDS011;1616;52.394;9.756;2022-08-27T03:44:47;10.17;;;4.17;;
3207;SDS011;1616;52.394;9.756;2022-08-27T03:47:13;6.70;;;3.20;;
3207;SDS011;1616;52.394;9.756;2022-08-27T03:49:39;7.27;;;3.33;;
3207;SDS011;1616;52.394;9.756;2022-08-27T03:52:05;12.40;;;2.73;;
3207;SDS011;1616;52.394;9.756;2022-08-27T03:54:35;7.43;;;3.43;;
3207;SDS011;1616;52.394;9.756;2022-08-27T03:57:02;11.20;;;4.63;;
3207;SDS011;1616;52.394;9.756;2022-08-27T03:59:29;5.93;;;3.60;;
3207;SDS011;1616;52.394;9.756;2022-08-27T04:01:55;4.67;;;2.80;;
3207;SDS011;1616;52.394;9.756;2022-08-27T04:04:21;8.63;;;2.70;;
3207;SDS011;1616;52.394;9.756;2022-08-27T04:06:48;12.10;;;3.30;;
3207;SDS011;1616;52.394;9.756;2022-08-27T04:09:14;7.33;;;2.30;;
3207;SDS011;1616;52.394;9.756;2022-08-27T04:11:40;6.93;;;2.53;;
3207;SDS011;1616;52.394;9.756;2022-08-27T04:14:06;8.23;;;2.20;;
3207;SDS011;1616;52.394;9.756;2022-08-27T04:16:32;6.80;;;2.90;;
3207;SDS011;1616;52.394;9.756;2022-08-27T04:18:59;9.93;;;2.40;;
3207;SDS011;1616;52.394;9.756;2022-08-27T04:21:25;7.20;;;2.90;;
3207;SDS011;1616;52.394;9.756;2022-08-27T04:23:51;9.50;;;3.20;;
3207;SDS011;1616;52.394;9.756;2022-08-27T04:26:17;7.90;;;2.23;;
3207;SDS011;1616;52.394;9.756;2022-08-27T04:28:43;7.33;;;2.30;;
3207;SDS011;1616;52.394;9.756;2022-08-27T04:31:09;6.23;;;2.37;;
3207;SDS011;1616;52.394;9.756;2022-08-27T04:33:34;4.40;;;2.10;;
3207;SDS011;1616;52.394;9.756;2022-08-27T04:36:01;13.40;;;3.03;;
3207;SDS011;1616;52.394;9.756;2022-08-27T04:38:29;6.07;;;2.20;;
3207;SDS011;1616;52.394;9.756;2022-08-27T04:40:55;6.60;;;2.23;;
3207;SDS011;1616;52.394;9.756;2022-08-27T04:43:53;7.13;;;2.70;;
3207;SDS011;1616;52.394;9.756;2022-08-27T04:48:51;7.30;;;3.10;;
3207;SDS011;1616;52.394;9.756;2022-08-27T04:51:17;4.60;;;2.90;;
3207;SDS011;1616;52.394;9.756;2022-08-27T04:53:44;7.47;;;2.43;;
3207;SDS011;1616;52.394;9.756;2022-08-27T04:56:14;8.50;;;2.40;;
3207;SDS011;1616;52.394;9.756;2022-08-27T04:58:41;5.93;;;2.97;;
3207;SDS011;1616;52.394;9.756;2022-08-27T05:01:08;5.57;;;2.53;;
3207;SDS011;1616;52.394;9.756;2022-08-27T05:03:39;8.80;;;2.53;;
3207;SDS011;1616;52.394;9.756;2022-08-27T05:06:05;7.73;;;2.77;;
3207;SDS011;1616;52.394;9.756;2022-08-27T05:08:31;8.00;;;2.00;;
3207;SDS011;1616;52.394;9.756;2022-08-27T05:10:57;5.93;;;2.80;;
3207;SDS011;1616;52.394;9.756;2022-08-27T05:13:24;10.53;;;2.53;;
3207;SDS011;1616;52.394;9.756;2022-08-27T05:15:56;6.17;;;2.93;;
3207;SDS011;1616;52.394;9.756;2022-08-27T05:18:24;10.90;;;3.43;;
3207;SDS011;1616;52.394;9.756;2022-08-27T05:20:50;16.77;;;3.07;;
3207;SDS011;1616;52.394;9.756;2022-08-27T05:23:16;11.10;;;3.17;;
3207;SDS011;1616;52.394;9.756;2022-08-27T05:25:44;10.30;;;4.17;;
3207;SDS011;1616;52.394;9.756;2022-08-27T05:28:11;12.90;;;3.30;;
3207;SDS011;1616;52.394;9.756;2022-08-27T05:30:39;11.97;;;3.13;;
3207;SDS011;1616;52.394;9.756;2022-08-27T05:33:07;9.33;;;2.57;;
3207;SDS011;1616;52.394;9.756;2022-08-27T05:35:40;5.37;;;3.60;;
3207;SDS011;1616;52.394;9.756;2022-08-27T05:38:07;11.27;;;3.50;;
3207;SDS011;1616;52.394;9.756;2022-08-27T05:40:34;10.03;;;3.93;;
3207;SDS011;1616;52.394;9.756;2022-08-27T05:43:00;9.40;;;2.83;;
3207;SDS011;1616;52.394;9.756;2022-08-27T05:45:26;8.00;;;2.53;;
3207;SDS011;1616;52.394;9.756;2022-08-27T05:47:51;9.60;;;2.87;;
3207;SDS011;1616;52.394;9.756;2022-08-27T05:50:17;11.40;;;3.03;;
3207;SDS011;1616;52.394;9.756;2022-08-27T05:52:43;8.30;;;3.20;;
3207;SDS011;1616;52.394;9.756;2022-08-27T05:55:08;4.47;;;2.90;;
3207;SDS011;1616;52.394;9.756;2022-08-27T05:57:34;13.07;;;3.13;;
3207;SDS011;1616;52.394;9.756;2022-08-27T06:00:00;7.67;;;2.63;;
3207;SDS011;1616;52.394;9.756;2022-08-27T06:02:45;3.70;;;2.30;;
3207;SDS011;1616;52.394;9.756;2022-08-27T06:05:11;8.40;;;2.60;;
3207;SDS011;1616;52.394;9.756;2022-08-27T06:07:37;4.17;;;2.13;;
3207;SDS011;1616;52.394;9.756;2022-08-27T06:10:03;8.60;;;3.30;;
3207;SDS011;1616;52.394;9.756;2022-08-27T06:12:31;4.43;;;2.33;;
3207;SDS011;1616;52.394;9.756;2022-08-27T06:14:58;9.37;;;2.40;;
3207;SDS011;1616;52.394;9.756;2022-08-27T06:17:25;7.33;;;2.50;;
3207;SDS011;1616;52.394;9.756;2022-08-27T06:19:51;4.17;;;2.10;;
3207;SDS011;1616;52.394;9.756;2022-08-27T06:22:16;4.50;;;2.23;;
3207;SDS011;1616;52.394;9.756;2022-08-27T06:24:42;8.97;;;2.63;;
3207;SDS011;1616;52.394;9.756;2022-08-27T06:27:09;6.80;;;2.33;;
3207;SDS011;1616;52.394;9.756;2022-08-27T06:29:37;6.63;;;2.20;;
3207;SDS011;1616;52.394;9.756;2022-08-27T06:32:04;6.53;;;2.13;;
3207;SDS011;1616;52.394;9.756;2022-08-27T06:34:30;5.10;;;2.67;;
3207;SDS011;1616;52.394;9.756;2022-08-27T06:36:56;3.63;;;1.83;;
3207;SDS011;1616;52.394;9.756;2022-08-27T06:39:22;10.93;;;3.17;;
3207;SDS011;1616;52.394;9.756;2022-08-27T06:41:48;3.50;;;2.03;;
3207;SDS011;1616;52.394;9.756;2022-08-27T06:44:17;19.07;;;2.60;;
3207;SDS011;1616;52.394;9.756;2022-08-27T06:46:43;5.53;;;2.07;;
3207;SDS011;1616;52.394;9.756;2022-08-27T06:49:09;4.13;;;1.97;;
3207;SDS011;1616;52.394;9.756;2022-08-27T06:51:37;4.27;;;1.50;;
3207;SDS011;1616;52.394;9.756;2022-08-27T06:54:05;8.23;;;2.40;;
3207;SDS011;1616;52.394;9.756;2022-08-27T06:56:33;6.67;;;2.10;;
3207;SDS011;1616;52.394;9.756;2022-08-27T06:58:59;7.10;;;2.00;;
3207;SDS011;1616;52.394;9.756;2022-08-27T07:01:29;8.90;;;2.60;;
3207;SDS011;1616;52.394;9.756;2022-08-27T07:03:57;2.60;;;1.80;;
3207;SDS011;1616;52.394;9.756;2022-08-27T07:06:25;2.50;;;1.83;;
3207;SDS011;1616;52.394;9.756;2022-08-27T07:08:52;5.23;;;2.10;;
3207;SDS011;1616;52.394;9.756;2022-08-27T07:11:17;13.63;;;2.17;;
3207;SDS011;1616;52.394;9.756;2022-08-27T07:13:45;6.20;;;2.27;;
3207;SDS011;1616;52.394;9.756;2022-08-27T07:16:12;8.03;;;2.97;;
3207;SDS011;1616;52.394;9.756;2022-08-27T07:18:39;4.53;;;2.00;;
3207;SDS011;1616;52.394;9.756;2022-08-27T07:21:05;4.20;;;2.00;;
3207;SDS011;1616;52.394;9.756;2022-08-27T07:23:32;4.67;;;1.73;;
3207;SDS011;1616;52.394;9.756;2022-08-27T07:25:59;4.40;;;2.20;;
3207;SDS011;1616;52.394;9.756;2022-08-27T07:28:24;7.23;;;2.00;;
3207;SDS011;1616;52.394;9.756;2022-08-27T07:30:50;4.63;;;1.80;;
3207;SDS011;1616;52.394;9.756;2022-08-27T07:33:16;7.80;;;2.17;;
3207;SDS011;1616;52.394;9.756;2022-08-27T07:35:42;9.10;;;2.93;;
3207;SDS011;1616;52.394;9.756;2022-08-27T07:38:10;7.40;;;2.37;;
3207;SDS011;1616;52.394;9.756;2022-08-27T07:40:36;4.40;;;1.80;;
3207;SDS011;1616;52.394;9.756;2022-08-27T07:43:04;3.17;;;1.77;;
3207;SDS011;1616;52.394;9.756;2022-08-27T07:45:49;6.70;;;2.47;;
3207;SDS011;1616;52.394;9.756;2022-08-27T07:48:20;4.73;;;1.70;;
3207;SDS011;1616;52.394;9.756;2022-08-27T07:50:47;6.00;;;2.70;;
3207;SDS011;1616;52.394;9.756;2022-08-27T07:53:13;9.03;;;3.00;;
3207;SDS011;1616;52.394;9.756;2022-08-27T07:55:39;4.10;;;1.50;;
3207;SDS011;1616;52.394;9.756;2022-08-27T07:58:04;5.20;;;1.80;;
3207;SDS011;1616;52.394;9.756;2022-08-27T08:00:30;5.40;;;1.60;;
3207;SDS011;1616;52.394;9.756;2022-08-27T08:02:57;5.07;;;1.67;;
3207;SDS011;1616;52.394;9.756;2022-08-27T08:05:23;5.17;;;1.90;;
3207;SDS011;1616;52.394;9.756;2022-08-27T08:07:48;3.90;;;1.73;;
3207;SDS011;1616;52.394;9.756;2022-08-27T08:10:16;4.90;;;1.93;;
3207;SDS011;1616;52.394;9.756;2022-08-27T08:12:42;6.90;;;2.33;;
3207;SDS011;1616;52.394;9.756;2022-08-27T08:15:09;3.13;;;1.60;;
3207;SDS011;1616;52.394;9.756;2022-08-27T08:17:35;4.90;;;1.47;;
3207;SDS011;1616;52.394;9.756;2022-08-27T08:20:02;3.27;;;1.70;;
3207;SDS011;1616;52.394;9.756;2022-08-27T08:22:29;1.97;;;1.27;;
3207;SDS011;1616;52.394;9.756;2022-08-27T08:24:55;4.33;;;1.70;;
3207;SDS011;1616;52.394;9.756;2022-08-27T08:27:21;3.53;;;1.73;;
3207;SDS011;1616;52.394;9.756;2022-08-27T08:29:47;2.10;;;1.40;;
3207;SDS011;1616;52.394;9.756;2022-08-27T08:32:13;4.50;;;1.50;;
3207;SDS011;1616;52.394;9.756;2022-08-27T08:34:41;8.53;;;2.07;;
3207;SDS011;1616;52.394;9.756;2022-08-27T08:37:08;4.90;;;1.80;;
3207;SDS011;1616;52.394;9.756;2022-08-27T08:39:35;6.53;;;1.43;;
3207;SDS011;1616;52.394;9.756;2022-08-27T08:42:03;11.53;;;1.67;;
3207;SDS011;1616;52.394;9.756;2022-08-27T08:47:15;8.70;;;1.77;;
3207;SDS011;1616;52.394;9.756;2022-08-27T08:49:53;8.10;;;1.47;;
3207;SDS011;1616;52.394;9.756;2022-08-27T08:54:57;17.43;;;2.57;;
3207;SDS011;1616;52.394;9.756;2022-08-27T08:57:37;2.17;;;1.40;;
3207;SDS011;1616;52.394;9.756;2022-08-27T09:00:11;4.60;;;2.07;;
3207;SDS011;1616;52.394;9.756;2022-08-27T09:02:38;4.23;;;1.50;;
3207;SDS011;1616;52.394;9.756;2022-08-27T09:05:05;3.70;;;1.57;;
3207;SDS011;1616;52.394;9.756;2022-08-27T09:07:42;6.80;;;2.07;;
3207;SDS011;1616;52.394;9.756;2022-08-27T09:10:25;3.37;;;1.37;;
3207;SDS011;1616;52.394;9.756;2022-08-27T09:12:58;2.30;;;1.87;;
3207;SDS011;1616;52.394;9.756;2022-08-27T09:15:28;4.20;;;1.40;;
3207;SDS011;1616;52.394;9.756;2022-08-27T09:18:11;3.27;;;1.40;;
3207;SDS011;1616;52.394;9.756;2022-08-27T09:20:38;9.30;;;1.60;;
3207;SDS011;1616;52.394;9.756;2022-08-27T09:25:49;6.73;;;1.80;;
3207;SDS011;1616;52.394;9.756;2022-08-27T09:28:19;5.33;;;1.70;;
3207;SDS011;1616;52.394;9.756;2022-08-27T09:31:27;5.87;;;2.20;;
3207;SDS011;1616;52.394;9.756;2022-08-27T09:33:53;7.03;;;2.17;;
3207;SDS011;1616;52.394;9.756;2022-08-27T09:36:20;5.23;;;2.00;;
3207;SDS011;1616;52.394;9.756;2022-08-27T09:38:51;9.63;;;1.80;;
3207;SDS011;1616;52.394;9.756;2022-08-27T09:41:22;7.67;;;1.40;;
3207;SDS011;1616;52.394;9.756;2022-08-27T09:43:56;5.80;;;1.77;;
3207;SDS011;1616;52.394;9.756;2022-08-27T09:46:23;4.00;;;1.40;;
3207;SDS011;1616;52.394;9.756;2022-08-27T09:48:50;5.67;;;2.20;;
3207;SDS011;1616;52.394;9.756;2022-08-27T09:51:17;3.67;;;1.77;;
3207;SDS011;1616;52.394;9.756;2022-08-27T09:53:49;3.60;;;1.63;;
3207;SDS011;1616;52.394;9.756;2022-08-27T09:56:29;9.80;;;1.50;;
3207;SDS011;1616;52.394;9.756;2022-08-27T10:02:05;3.30;;;1.53;;
3207;SDS011;1616;52.394;9.756;2022-08-27T10:04:39;3.20;;;1.77;;
3207;SDS011;1616;52.394;9.756;2022-08-27T10:07:53;6.17;;;1.57;;
3207;SDS011;1616;52.394;9.756;2022-08-27T10:10:18;5.10;;;1.80;;
3207;SDS011;1616;52.394;9.756;2022-08-27T10:13:00;3.43;;;1.53;;
3207;SDS011;1616;52.394;9.756;2022-08-27T10:15:40;1.80;;;1.30;;
3207;SDS011;1616;52.394;9.756;2022-08-27T10:21:00;3.67;;;1.37;;
3207;SDS011;1616;52.394;9.756;2022-08-27T10:26:30;5.87;;;1.50;;
3207;SDS011;1616;52.394;9.756;2022-08-27T10:29:20;3.50;;;1.70;;
3207;SDS011;1616;52.394;9.756;2022-08-27T10:46:09;2.77;;;1.50;;
3207;SDS011;1616;52.394;9.756;2022-08-27T10:48:49;3.07;;;1.10;;
3207;SDS011;1616;52.394;9.756;2022-08-27T10:51:29;3.27;;;1.53;;
3207;SDS011;1616;52.394;9.756;2022-08-27T10:59:13;1.60;;;1.30;;
3207;SDS011;1616;52.394;9.756;2022-08-27T11:01:52;1.50;;;1.10;;
3207;SDS011;1616;52.394;9.756;2022-08-27T11:04:31;2.30;;;1.17;;
3207;SDS011;1616;52.394;9.756;2022-08-27T11:09:41;4.30;;;1.20;;
3207;SDS011;1616;52.394;9.756;2022-08-27T11:12:16;2.50;;;1.20;;
3207;SDS011;1616;52.394;9.756;2022-08-27T11:14:56;2.47;;;1.00;;
3207;SDS011;1616;52.394;9.756;2022-08-27T11:17:33;9.33;;;1.87;;
3207;SDS011;1616;52.394;9.756;2022-08-27T11:22:50;1.90;;;1.03;;
3207;SDS011;1616;52.394;9.756;2022-08-27T11:28:30;2.20;;;1.10;;
3207;SDS011;1616;52.394;9.756;2022-08-27T11:31:17;3.10;;;0.90;;
3207;SDS011;1616;52.394;9.756;2022-08-27T11:44:38;2.83;;;1.20;;
3207;SDS011;1616;52.394;9.756;2022-08-27T11:47:11;5.93;;;1.40;;
3207;SDS011;1616;52.394;9.756;2022-08-27T11:49:49;3.63;;;1.37;;
3207;SDS011;1616;52.394;9.756;2022-08-27T11:52:29;3.13;;;1.27;;
3207;SDS011;1616;52.394;9.756;2022-08-27T11:57:45;4.07;;;1.20;;
3207;SDS011;1616;52.394;9.756;2022-08-27T12:00:21;4.17;;;1.50;;
3207;SDS011;1616;52.394;9.756;2022-08-27T12:05:32;3.43;;;1.40;;
3207;SDS011;1616;52.394;9.756;2022-08-27T12:08:25;2.63;;;1.27;;
3207;SDS011;1616;52.394;9.756;2022-08-27T12:11:12;2.20;;;1.30;;
3207;SDS011;1616;52.394;9.756;2022-08-27T12:29:54;3.47;;;1.40;;
3207;SDS011;1616;52.394;9.756;2022-08-27T12:32:32;2.87;;;1.20;;
3207;SDS011;1616;52.394;9.756;2022-08-27T12:41:09;3.60;;;1.60;;
3207;SDS011;1616;52.394;9.756;2022-08-27T12:43:36;2.20;;;1.23;;
3207;SDS011;1616;52.394;9.756;2022-08-27T12:48:42;4.73;;;1.40;;
3207;SDS011;1616;52.394;9.756;2022-08-27T12:56:25;7.03;;;1.50;;
3207;SDS011;1616;52.394;9.756;2022-08-27T12:59:17;5.00;;;1.40;;
3207;SDS011;1616;52.394;9.756;2022-08-27T13:04:37;4.90;;;1.40;;
3207;SDS011;1616;52.394;9.756;2022-08-27T13:07:05;7.50;;;1.67;;
3207;SDS011;1616;52.394;9.756;2022-08-27T13:09:34;4.60;;;1.63;;
3207;SDS011;1616;52.394;9.756;2022-08-27T13:12:03;2.20;;;1.57;;
3207;SDS011;1616;52.394;9.756;2022-08-27T13:14:35;3.57;;;1.60;;
3207;SDS011;1616;52.394;9.756;2022-08-27T13:17:07;4.90;;;1.40;;
3207;SDS011;1616;52.394;9.756;2022-08-27T13:19:56;3.40;;;1.50;;
3207;SDS011;1616;52.394;9.756;2022-08-27T13:22:28;1.83;;;1.40;;
3207;SDS011;1616;52.394;9.756;2022-08-27T13:25:03;2.83;;;1.30;;
3207;SDS011;1616;52.394;9.756;2022-08-27T13:27:32;3.97;;;1.20;;
3207;SDS011;1616;52.394;9.756;2022-08-27T13:30:09;6.20;;;2.10;;
3207;SDS011;1616;52.394;9.756;2022-08-27T13:32:36;5.93;;;1.50;;
3207;SDS011;1616;52.394;9.756;2022-08-27T13:35:02;2.57;;;1.50;;
3207;SDS011;1616;52.394;9.756;2022-08-27T13:37:34;4.17;;;1.30;;
3207;SDS011;1616;52.394;9.756;2022-08-27T13:40:05;4.70;;;1.60;;
3207;SDS011;1616;52.394;9.756;2022-08-27T13:42:31;1.93;;;1.60;;
3207;SDS011;1616;52.394;9.756;2022-08-27T13:45:02;2.40;;;1.47;;
3207;SDS011;1616;52.394;9.756;2022-08-27T13:47:29;3.60;;;1.67;;
3207;SDS011;1616;52.394;9.756;2022-08-27T13:53:00;4.43;;;1.67;;
3207;SDS011;1616;52.394;9.756;2022-08-27T13:55:48;4.80;;;1.97;;
3207;SDS011;1616;52.394;9.756;2022-08-27T13:58:26;5.03;;;1.40;;
3207;SDS011;1616;52.394;9.756;2022-08-27T14:00:54;3.70;;;1.53;;
3207;SDS011;1616;52.394;9.756;2022-08-27T14:03:31;4.03;;;1.43;;
3207;SDS011;1616;52.394;9.756;2022-08-27T14:05:59;1.80;;;1.30;;
3207;SDS011;1616;52.394;9.756;2022-08-27T14:08:33;4.53;;;1.70;;
3207;SDS011;1616;52.394;9.756;2022-08-27T14:11:04;2.97;;;1.50;;
3207;SDS011;1616;52.394;9.756;2022-08-27T14:13:39;3.40;;;1.47;;
3207;SDS011;1616;52.394;9.756;2022-08-27T14:16:29;5.27;;;1.33;;
3207;SDS011;1616;52.394;9.756;2022-08-27T14:19:07;23.63;;;1.57;;
3207;SDS011;1616;52.394;9.756;2022-08-27T14:21:47;6.33;;;1.80;;
3207;SDS011;1616;52.394;9.756;2022-08-27T14:24:13;3.07;;;1.70;;
3207;SDS011;1616;52.394;9.756;2022-08-27T14:26:39;3.33;;;1.30;;
3207;SDS011;1616;52.394;9.756;2022-08-27T14:29:04;2.40;;;1.50;;
3207;SDS011;1616;52.394;9.756;2022-08-27T14:31:30;8.00;;;1.97;;
3207;SDS011;1616;52.394;9.756;2022-08-27T14:33:56;2.37;;;1.53;;
3207;SDS011;1616;52.394;9.756;2022-08-27T14:36:23;6.80;;;1.70;;
3207;SDS011;1616;52.394;9.756;2022-08-27T14:38:51;3.33;;;1.67;;
3207;SDS011;1616;52.394;9.756;2022-08-27T14:41:18;9.00;;;1.83;;
3207;SDS011;1616;52.394;9.756;2022-08-27T14:43:45;3.90;;;1.37;;
3207;SDS011;1616;52.394;9.756;2022-08-27T14:46:12;8.33;;;2.17;;
3207;SDS011;1616;52.394;9.756;2022-08-27T14:48:54;8.10;;;2.13;;
3207;SDS011;1616;52.394;9.756;2022-08-27T14:51:22;5.33;;;1.60;;
3207;SDS011;1616;52.394;9.756;2022-08-27T14:53:49;5.87;;;2.07;;
3207;SDS011;1616;52.394;9.756;2022-08-27T14:56:16;6.50;;;1.93;;
3207;SDS011;1616;52.394;9.756;2022-08-27T14:58:42;3.70;;;1.60;;
3207;SDS011;1616;52.394;9.756;2022-08-27T15:01:08;5.30;;;1.67;;
3207;SDS011;1616;52.394;9.756;2022-08-27T15:03:36;4.60;;;1.57;;
3207;SDS011;1616;52.394;9.756;2022-08-27T15:06:05;4.90;;;1.40;;
3207;SDS011;1616;52.394;9.756;2022-08-27T15:08:30;9.27;;;1.53;;
3207;SDS011;1616;52.394;9.756;2022-08-27T15:10:56;3.63;;;1.40;;
3207;SDS011;1616;52.394;9.756;2022-08-27T15:13:22;2.20;;;1.17;;
3207;SDS011;1616;52.394;9.756;2022-08-27T15:15:48;3.07;;;1.93;;
3207;SDS011;1616;52.394;9.756;2022-08-27T15:18:13;8.40;;;2.13;;
3207;SDS011;1616;52.394;9.756;2022-08-27T15:20:39;3.97;;;1.63;;
3207;SDS011;1616;52.394;9.756;2022-08-27T15:23:06;5.17;;;1.30;;
3207;SDS011;1616;52.394;9.756;2022-08-27T15:25:33;3.13;;;1.80;;
3207;SDS011;1616;52.394;9.756;2022-08-27T15:27:59;3.53;;;1.63;;
3207;SDS011;1616;52.394;9.756;2022-08-27T15:30:25;6.43;;;1.93;;
3207;SDS011;1616;52.394;9.756;2022-08-27T15:32:53;3.97;;;1.30;;
3207;SDS011;1616;52.394;9.756;2022-08-27T15:35:21;4.47;;;1.50;;
3207;SDS011;1616;52.394;9.756;2022-08-27T15:37:50;3.50;;;1.37;;
3207;SDS011;1616;52.394;9.756;2022-08-27T15:40:17;7.63;;;1.40;;
3207;SDS011;1616;52.394;9.756;2022-08-27T15:42:44;3.20;;;1.30;;
3207;SDS011;1616;52.394;9.756;2022-08-27T15:45:13;9.63;;;1.40;;
3207;SDS011;1616;52.394;9.756;2022-08-27T15:47:39;2.43;;;1.30;;
3207;SDS011;1616;52.394;9.756;2022-08-27T15:50:05;4.17;;;1.40;;
3207;SDS011;1616;52.394;9.756;2022-08-27T15:52:31;4.33;;;1.50;;
3207;SDS011;1616;52.394;9.756;2022-08-27T15:54:58;2.30;;;1.30;;
3207;SDS011;1616;52.394;9.756;2022-08-27T15:57:23;12.50;;;2.27;;
3207;SDS011;1616;52.394;9.756;2022-08-27T15:59:49;4.40;;;1.60;;
3207;SDS011;1616;52.394;9.756;2022-08-27T16:02:19;6.97;;;1.30;;
3207;SDS011;1616;52.394;9.756;2022-08-27T16:04:46;7.37;;;1.53;;
3207;SDS011;1616;52.394;9.756;2022-08-27T16:07:15;3.57;;;1.87;;
3207;SDS011;1616;52.394;9.756;2022-08-27T16:09:42;5.73;;;1.53;;
3207;SDS011;1616;52.394;9.756;2022-08-27T16:12:08;10.63;;;2.17;;
3207;SDS011;1616;52.394;9.756;2022-08-27T16:14:34;6.10;;;1.70;;
3207;SDS011;1616;52.394;9.756;2022-08-27T16:17:00;7.57;;;1.40;;
3207;SDS011;1616;52.394;9.756;2022-08-27T16:19:26;3.97;;;1.43;;
3207;SDS011;1616;52.394;9.756;2022-08-27T16:21:52;5.60;;;1.40;;
3207;SDS011;1616;52.394;9.756;2022-08-27T16:24:18;7.50;;;1.80;;
3207;SDS011;1616;52.394;9.756;2022-08-27T16:26:46;6.10;;;1.40;;
3207;SDS011;1616;52.394;9.756;2022-08-27T16:29:13;5.40;;;1.93;;
3207;SDS011;1616;52.394;9.756;2022-08-27T16:31:38;6.53;;;1.30;;
3207;SDS011;1616;52.394;9.756;2022-08-27T16:34:06;4.90;;;1.40;;
3207;SDS011;1616;52.394;9.756;2022-08-27T16:36:39;3.90;;;1.80;;
3207;SDS011;1616;52.394;9.756;2022-08-27T16:39:04;4.17;;;1.50;;
3207;SDS011;1616;52.394;9.756;2022-08-27T16:41:30;5.17;;;1.60;;
3207;SDS011;1616;52.394;9.756;2022-08-27T16:43:55;4.93;;;1.67;;
3207;SDS011;1616;52.394;9.756;2022-08-27T16:46:23;3.40;;;1.30;;
3207;SDS011;1616;52.394;9.756;2022-08-27T16:48:48;5.87;;;1.20;;
3207;SDS011;1616;52.394;9.756;2022-08-27T16:51:33;5.67;;;1.30;;
3207;SDS011;1616;52.394;9.756;2022-08-27T16:54:00;9.27;;;1.50;;
3207;SDS011;1616;52.394;9.756;2022-08-27T16:56:27;2.33;;;1.10;;
3207;SDS011;1616;52.394;9.756;2022-08-27T16:58:52;6.43;;;1.47;;
3207;SDS011;1616;52.394;9.756;2022-08-27T17:01:19;13.80;;;1.87;;
3207;SDS011;1616;52.394;9.756;2022-08-27T17:03:48;6.20;;;2.00;;
3207;SDS011;1616;52.394;9.756;2022-08-27T17:06:22;2.80;;;1.23;;
3207;SDS011;1616;52.394;9.756;2022-08-27T17:08:49;3.63;;;1.10;;